sensor_id;sensor_type;location;lat;lon;timestamp;P1;durP1;ratioP1;P2;durP2;ratioP2
20026;SDS011;10174;42.688;23.344;2023-06-10T00:00:23;20.90;;;10.88;;
20026;SDS011;10174;42.688;23.344;2023-06-10T00:02:49;21.85;;;11.50;;
20026;SDS011;10174;42.688;23.344;2023-06-10T00:05:14;25.30;;;11.80;;
20026;SDS011;10174;42.688;23.344;2023-06-10T00:07:41;22.23;;;11.98;;
20026;SDS011;10174;42.688;23.344;2023-06-10T00:10:07;20.95;;;11.30;;
20026;SDS011;10174;42.688;23.344;2023-06-10T00:12:33;19.33;;;12.25;;
20026;SDS011;10174;42.688;23.344;2023-06-10T00:15:06;23.58;;;12.60;;
20026;SDS011;10174;42.688;23.344;2023-06-10T00:17:32;19.88;;;12.27;;
20026;SDS011;10174;42.688;23.344;2023-06-10T00:19:58;17.48;;;11.80;;
20026;SDS011;10174;42.688;23.344;2023-06-10T00:22:23;20.17;;;12.05;;
20026;SDS011;10174;42.688;23.344;2023-06-10T00:24:49;23.50;;;12.55;;
20026;SDS011;10174;42.688;23.344;2023-06-10T00:27:15;23.35;;;12.27;;
20026;SDS011;10174;42.688;23.344;2023-06-10T00:29:41;17.73;;;11.90;;
20026;SDS011;10174;42.688;23.344;2023-06-10T00:32:06;19.77;;;11.70;;
20026;SDS011;10174;42.688;23.344;2023-06-10T00:34:32;24.02;;;12.18;;
20026;SDS011;10174;42.688;23.344;2023-06-10T00:36:58;19.75;;;12.02;;
20026;SDS011;10174;42.688;23.344;2023-06-10T00:39:23;17.23;;;11.60;;
20026;SDS011;10174;42.688;23.344;2023-06-10T00:41:48;22.13;;;11.93;;
20026;SDS011;10174;42.688;23.344;2023-06-10T00:44:15;26.55;;;11.75;;
20026;SDS011;10174;42.688;23.344;2023-06-10T00:46:40;20.75;;;12.45;;
20026;SDS011;10174;42.688;23.344;2023-06-10T00:49:06;20.45;;;11.80;;
20026;SDS011;10174;42.688;23.344;2023-06-10T00:51:33;25.42;;;11.88;;
20026;SDS011;10174;42.688;23.344;2023-06-10T00:53:59;29.15;;;12.48;;
20026;SDS011;10174;42.688;23.344;2023-06-10T00:56:24;18.50;;;11.85;;
20026;SDS011;10174;42.688;23.344;2023-06-10T00:58:50;22.75;;;12.10;;
20026;SDS011;10174;42.688;23.344;2023-06-10T01:01:16;21.00;;;11.45;;
20026;SDS011;10174;42.688;23.344;2023-06-10T01:03:43;26.70;;;12.48;;
20026;SDS011;10174;42.688;23.344;2023-06-10T01:11:47;25.60;;;13.52;;
20026;SDS011;10174;42.688;23.344;2023-06-10T01:14:19;24.63;;;12.90;;
20026;SDS011;10174;42.688;23.344;2023-06-10T01:16:45;27.08;;;13.55;;
20026;SDS011;10174;42.688;23.344;2023-06-10T01:19:11;25.70;;;13.40;;
20026;SDS011;10174;42.688;23.344;2023-06-10T01:21:38;24.17;;;12.70;;
20026;SDS011;10174;42.688;23.344;2023-06-10T01:24:04;23.35;;;13.65;;
20026;SDS011;10174;42.688;23.344;2023-06-10T01:26:33;22.40;;;13.00;;
20026;SDS011;10174;42.688;23.344;2023-06-10T01:29:34;22.45;;;12.40;;
20026;SDS011;10174;42.688;23.344;2023-06-10T01:32:04;22.00;;;13.05;;
20026;SDS011;10174;42.688;23.344;2023-06-10T01:34:36;28.67;;;13.45;;
20026;SDS011;10174;42.688;23.344;2023-06-10T01:37:04;21.08;;;14.07;;
20026;SDS011;10174;42.688;23.344;2023-06-10T01:39:30;25.38;;;13.30;;
20026;SDS011;10174;42.688;23.344;2023-06-10T01:41:57;19.23;;;12.85;;
20026;SDS011;10174;42.688;23.344;2023-06-10T01:44:23;26.73;;;13.57;;
20026;SDS011;10174;42.688;23.344;2023-06-10T01:46:48;22.65;;;13.60;;
20026;SDS011;10174;42.688;23.344;2023-06-10T01:49:14;26.40;;;15.90;;
20026;SDS011;10174;42.688;23.344;2023-06-10T01:51:40;27.77;;;16.33;;
20026;SDS011;10174;42.688;23.344;2023-06-10T01:54:06;33.30;;;16.77;;
20026;SDS011;10174;42.688;23.344;2023-06-10T01:56:32;25.00;;;15.25;;
20026;SDS011;10174;42.688;23.344;2023-06-10T01:58:57;28.83;;;15.80;;
20026;SDS011;10174;42.688;23.344;2023-06-10T02:01:26;26.80;;;15.23;;
20026;SDS011;10174;42.688;23.344;2023-06-10T02:03:52;23.98;;;13.25;;
20026;SDS011;10174;42.688;23.344;2023-06-10T02:06:17;22.48;;;13.98;;
20026;SDS011;10174;42.688;23.344;2023-06-10T02:08:43;25.13;;;13.85;;
20026;SDS011;10174;42.688;23.344;2023-06-10T02:11:08;28.27;;;14.07;;
20026;SDS011;10174;42.688;23.344;2023-06-10T02:13:34;31.00;;;14.40;;
20026;SDS011;10174;42.688;23.344;2023-06-10T02:15:59;39.92;;;14.63;;
20026;SDS011;10174;42.688;23.344;2023-06-10T02:18:26;29.48;;;13.90;;
20026;SDS011;10174;42.688;23.344;2023-06-10T02:20:53;26.60;;;13.20;;
20026;SDS011;10174;42.688;23.344;2023-06-10T02:23:18;19.35;;;13.68;;
20026;SDS011;10174;42.688;23.344;2023-06-10T02:25:44;27.40;;;13.52;;
20026;SDS011;10174;42.688;23.344;2023-06-10T02:28:09;24.33;;;13.90;;
20026;SDS011;10174;42.688;23.344;2023-06-10T02:30:35;19.75;;;12.85;;
20026;SDS011;10174;42.688;23.344;2023-06-10T02:33:01;32.17;;;13.45;;
20026;SDS011;10174;42.688;23.344;2023-06-10T02:35:27;31.45;;;12.98;;
20026;SDS011;10174;42.688;23.344;2023-06-10T02:37:52;29.10;;;13.65;;
20026;SDS011;10174;42.688;23.344;2023-06-10T02:40:18;27.92;;;13.75;;
20026;SDS011;10174;42.688;23.344;2023-06-10T02:42:43;26.80;;;13.02;;
20026;SDS011;10174;42.688;23.344;2023-06-10T02:45:08;28.02;;;13.02;;
20026;SDS011;10174;42.688;23.344;2023-06-10T02:47:34;23.73;;;13.45;;
20026;SDS011;10174;42.688;23.344;2023-06-10T02:49:59;25.75;;;13.65;;
20026;SDS011;10174;42.688;23.344;2023-06-10T02:52:25;25.48;;;13.43;;
20026;SDS011;10174;42.688;23.344;2023-06-10T02:54:50;30.10;;;13.45;;
20026;SDS011;10174;42.688;23.344;2023-06-10T02:57:15;26.40;;;14.05;;
20026;SDS011;10174;42.688;23.344;2023-06-10T02:59:41;23.50;;;14.48;;
20026;SDS011;10174;42.688;23.344;2023-06-10T03:02:06;33.35;;;13.52;;
20026;SDS011;10174;42.688;23.344;2023-06-10T03:04:32;22.80;;;13.73;;
20026;SDS011;10174;42.688;23.344;2023-06-10T03:06:58;19.33;;;13.32;;
20026;SDS011;10174;42.688;23.344;2023-06-10T03:09:25;25.33;;;14.27;;
20026;SDS011;10174;42.688;23.344;2023-06-10T03:11:51;24.83;;;15.32;;
20026;SDS011;10174;42.688;23.344;2023-06-10T03:14:16;25.10;;;15.30;;
20026;SDS011;10174;42.688;23.344;2023-06-10T03:16:41;26.45;;;15.02;;
20026;SDS011;10174;42.688;23.344;2023-06-10T03:19:07;22.55;;;15.43;;
20026;SDS011;10174;42.688;23.344;2023-06-10T03:21:34;23.40;;;15.35;;
20026;SDS011;10174;42.688;23.344;2023-06-10T03:24:00;32.50;;;14.85;;
20026;SDS011;10174;42.688;23.344;2023-06-10T03:26:26;28.67;;;15.68;;
20026;SDS011;10174;42.688;23.344;2023-06-10T03:28:52;23.58;;;15.93;;
20026;SDS011;10174;42.688;23.344;2023-06-10T03:31:18;26.63;;;16.23;;
20026;SDS011;10174;42.688;23.344;2023-06-10T03:33:43;31.23;;;17.30;;
20026;SDS011;10174;42.688;23.344;2023-06-10T03:36:09;22.95;;;16.17;;
20026;SDS011;10174;42.688;23.344;2023-06-10T03:38:34;31.00;;;17.63;;
20026;SDS011;10174;42.688;23.344;2023-06-10T03:41:00;27.58;;;17.25;;
20026;SDS011;10174;42.688;23.344;2023-06-10T03:43:26;30.73;;;17.73;;
20026;SDS011;10174;42.688;23.344;2023-06-10T03:45:52;28.55;;;16.10;;
20026;SDS011;10174;42.688;23.344;2023-06-10T03:48:18;20.38;;;13.00;;
20026;SDS011;10174;42.688;23.344;2023-06-10T03:50:43;22.83;;;12.75;;
20026;SDS011;10174;42.688;23.344;2023-06-10T03:53:09;23.25;;;13.68;;
20026;SDS011;10174;42.688;23.344;2023-06-10T03:55:34;22.27;;;12.55;;
20026;SDS011;10174;42.688;23.344;2023-06-10T03:58:01;16.77;;;12.13;;
20026;SDS011;10174;42.688;23.344;2023-06-10T04:00:26;19.50;;;13.68;;
20026;SDS011;10174;42.688;23.344;2023-06-10T04:02:52;17.38;;;11.93;;
20026;SDS011;10174;42.688;23.344;2023-06-10T04:05:18;24.75;;;12.45;;
20026;SDS011;10174;42.688;23.344;2023-06-10T04:07:47;20.23;;;11.77;;
20026;SDS011;10174;42.688;23.344;2023-06-10T04:10:13;17.83;;;11.85;;
20026;SDS011;10174;42.688;23.344;2023-06-10T04:12:39;15.40;;;10.23;;
20026;SDS011;10174;42.688;23.344;2023-06-10T04:15:06;21.17;;;11.35;;
20026;SDS011;10174;42.688;23.344;2023-06-10T04:17:32;15.30;;;10.68;;
20026;SDS011;10174;42.688;23.344;2023-06-10T04:19:57;21.25;;;10.45;;
20026;SDS011;10174;42.688;23.344;2023-06-10T04:22:23;16.95;;;11.27;;
20026;SDS011;10174;42.688;23.344;2023-06-10T04:24:48;15.32;;;11.13;;
20026;SDS011;10174;42.688;23.344;2023-06-10T04:27:14;15.32;;;10.27;;
20026;SDS011;10174;42.688;23.344;2023-06-10T04:29:39;17.35;;;11.45;;
20026;SDS011;10174;42.688;23.344;2023-06-10T04:32:05;22.27;;;10.90;;
20026;SDS011;10174;42.688;23.344;2023-06-10T04:34:32;21.77;;;11.88;;
20026;SDS011;10174;42.688;23.344;2023-06-10T04:36:58;16.95;;;11.25;;
20026;SDS011;10174;42.688;23.344;2023-06-10T04:39:23;19.75;;;11.05;;
20026;SDS011;10174;42.688;23.344;2023-06-10T04:41:49;22.42;;;11.32;;
20026;SDS011;10174;42.688;23.344;2023-06-10T04:44:14;22.10;;;12.35;;
20026;SDS011;10174;42.688;23.344;2023-06-10T04:46:40;21.73;;;11.70;;
20026;SDS011;10174;42.688;23.344;2023-06-10T04:49:05;18.95;;;11.57;;
20026;SDS011;10174;42.688;23.344;2023-06-10T04:51:31;25.85;;;13.15;;
20026;SDS011;10174;42.688;23.344;2023-06-10T04:53:59;18.55;;;13.00;;
20026;SDS011;10174;42.688;23.344;2023-06-10T04:56:28;20.13;;;12.77;;
20026;SDS011;10174;42.688;23.344;2023-06-10T04:58:55;19.80;;;12.35;;
20026;SDS011;10174;42.688;23.344;2023-06-10T05:01:24;22.63;;;12.95;;
20026;SDS011;10174;42.688;23.344;2023-06-10T05:03:50;22.70;;;13.13;;
20026;SDS011;10174;42.688;23.344;2023-06-10T05:06:15;25.42;;;14.15;;
20026;SDS011;10174;42.688;23.344;2023-06-10T05:08:40;39.63;;;14.98;;
20026;SDS011;10174;42.688;23.344;2023-06-10T05:11:06;23.00;;;13.55;;
20026;SDS011;10174;42.688;23.344;2023-06-10T05:13:31;30.80;;;12.68;;
20026;SDS011;10174;42.688;23.344;2023-06-10T05:15:57;22.05;;;12.50;;
20026;SDS011;10174;42.688;23.344;2023-06-10T05:18:23;25.63;;;12.50;;
20026;SDS011;10174;42.688;23.344;2023-06-10T05:20:48;40.30;;;15.75;;
20026;SDS011;10174;42.688;23.344;2023-06-10T05:23:14;20.58;;;12.77;;
20026;SDS011;10174;42.688;23.344;2023-06-10T05:25:40;23.67;;;13.57;;
20026;SDS011;10174;42.688;23.344;2023-06-10T05:28:06;26.98;;;13.98;;
20026;SDS011;10174;42.688;23.344;2023-06-10T05:30:34;21.98;;;13.38;;
20026;SDS011;10174;42.688;23.344;2023-06-10T05:33:00;27.55;;;14.25;;
20026;SDS011;10174;42.688;23.344;2023-06-10T05:35:26;25.55;;;13.27;;
20026;SDS011;10174;42.688;23.344;2023-06-10T05:37:51;25.42;;;14.90;;
20026;SDS011;10174;42.688;23.344;2023-06-10T05:40:16;27.42;;;15.65;;
20026;SDS011;10174;42.688;23.344;2023-06-10T05:42:42;22.90;;;15.20;;
20026;SDS011;10174;42.688;23.344;2023-06-10T05:45:07;29.55;;;15.18;;
20026;SDS011;10174;42.688;23.344;2023-06-10T05:47:33;24.88;;;15.00;;
20026;SDS011;10174;42.688;23.344;2023-06-10T05:49:59;27.80;;;14.65;;
20026;SDS011;10174;42.688;23.344;2023-06-10T05:52:24;29.20;;;14.88;;
20026;SDS011;10174;42.688;23.344;2023-06-10T05:54:51;27.13;;;15.38;;
20026;SDS011;10174;42.688;23.344;2023-06-10T05:57:16;30.90;;;15.50;;
20026;SDS011;10174;42.688;23.344;2023-06-10T05:59:42;23.67;;;15.70;;
20026;SDS011;10174;42.688;23.344;2023-06-10T06:02:07;31.63;;;15.52;;
20026;SDS011;10174;42.688;23.344;2023-06-10T06:04:34;30.50;;;14.23;;
20026;SDS011;10174;42.688;23.344;2023-06-10T06:06:59;21.60;;;12.00;;
20026;SDS011;10174;42.688;23.344;2023-06-10T06:09:25;21.80;;;13.98;;
20026;SDS011;10174;42.688;23.344;2023-06-10T06:11:50;25.30;;;15.15;;
20026;SDS011;10174;42.688;23.344;2023-06-10T06:14:16;32.28;;;15.63;;
20026;SDS011;10174;42.688;23.344;2023-06-10T06:16:41;25.77;;;14.02;;
20026;SDS011;10174;42.688;23.344;2023-06-10T06:19:06;22.60;;;11.75;;
20026;SDS011;10174;42.688;23.344;2023-06-10T06:21:32;23.35;;;13.05;;
20026;SDS011;10174;42.688;23.344;2023-06-10T06:23:57;31.08;;;12.40;;
20026;SDS011;10174;42.688;23.344;2023-06-10T06:26:24;54.10;;;12.82;;
20026;SDS011;10174;42.688;23.344;2023-06-10T06:28:50;26.08;;;13.43;;
20026;SDS011;10174;42.688;23.344;2023-06-10T06:31:15;25.77;;;12.98;;
20026;SDS011;10174;42.688;23.344;2023-06-10T06:33:41;24.55;;;11.93;;
20026;SDS011;10174;42.688;23.344;2023-06-10T06:36:06;22.88;;;11.55;;
20026;SDS011;10174;42.688;23.344;2023-06-10T06:38:32;16.73;;;11.45;;
20026;SDS011;10174;42.688;23.344;2023-06-10T06:40:57;32.15;;;19.95;;
20026;SDS011;10174;42.688;23.344;2023-06-10T06:43:27;22.45;;;11.75;;
20026;SDS011;10174;42.688;23.344;2023-06-10T06:45:53;46.17;;;12.82;;
20026;SDS011;10174;42.688;23.344;2023-06-10T06:48:19;31.95;;;13.13;;
20026;SDS011;10174;42.688;23.344;2023-06-10T06:50:44;19.88;;;12.40;;
20026;SDS011;10174;42.688;23.344;2023-06-10T06:53:10;19.60;;;11.18;;
20026;SDS011;10174;42.688;23.344;2023-06-10T06:55:35;19.80;;;11.55;;
20026;SDS011;10174;42.688;23.344;2023-06-10T06:58:00;19.77;;;10.43;;
20026;SDS011;10174;42.688;23.344;2023-06-10T07:00:28;18.05;;;9.13;;
20026;SDS011;10174;42.688;23.344;2023-06-10T07:02:54;18.95;;;8.52;;
20026;SDS011;10174;42.688;23.344;2023-06-10T07:05:20;17.10;;;8.25;;
20026;SDS011;10174;42.688;23.344;2023-06-10T07:07:46;17.15;;;8.35;;
20026;SDS011;10174;42.688;23.344;2023-06-10T07:10:11;17.83;;;9.20;;
20026;SDS011;10174;42.688;23.344;2023-06-10T07:12:37;13.23;;;8.65;;
20026;SDS011;10174;42.688;23.344;2023-06-10T07:15:02;16.20;;;8.45;;
20026;SDS011;10174;42.688;23.344;2023-06-10T07:17:28;16.70;;;7.80;;
20026;SDS011;10174;42.688;23.344;2023-06-10T07:19:53;13.25;;;7.43;;
20026;SDS011;10174;42.688;23.344;2023-06-10T07:22:22;17.42;;;6.80;;
20026;SDS011;10174;42.688;23.344;2023-06-10T07:24:47;21.50;;;8.02;;
20026;SDS011;10174;42.688;23.344;2023-06-10T07:27:13;16.48;;;7.05;;
20026;SDS011;10174;42.688;23.344;2023-06-10T07:29:38;16.80;;;8.05;;
20026;SDS011;10174;42.688;23.344;2023-06-10T07:32:04;14.55;;;8.10;;
20026;SDS011;10174;42.688;23.344;2023-06-10T07:34:29;15.65;;;6.82;;
20026;SDS011;10174;42.688;23.344;2023-06-10T07:36:54;12.50;;;7.13;;
20026;SDS011;10174;42.688;23.344;2023-06-10T07:39:20;10.18;;;6.72;;
20026;SDS011;10174;42.688;23.344;2023-06-10T07:41:45;12.10;;;6.25;;
20026;SDS011;10174;42.688;23.344;2023-06-10T07:44:11;11.07;;;6.05;;
20026;SDS011;10174;42.688;23.344;2023-06-10T07:46:36;12.15;;;6.25;;
20026;SDS011;10174;42.688;23.344;2023-06-10T07:49:02;9.98;;;5.80;;
20026;SDS011;10174;42.688;23.344;2023-06-10T07:51:27;12.00;;;5.22;;
20026;SDS011;10174;42.688;23.344;2023-06-10T07:53:52;9.40;;;5.60;;
20026;SDS011;10174;42.688;23.344;2023-06-10T07:56:18;10.75;;;5.70;;
20026;SDS011;10174;42.688;23.344;2023-06-10T07:58:45;10.77;;;5.93;;
20026;SDS011;10174;42.688;23.344;2023-06-10T08:01:11;10.55;;;6.10;;
20026;SDS011;10174;42.688;23.344;2023-06-10T08:03:36;10.02;;;5.75;;
20026;SDS011;10174;42.688;23.344;2023-06-10T08:06:01;8.05;;;4.82;;
20026;SDS011;10174;42.688;23.344;2023-06-10T08:08:27;11.48;;;4.90;;
20026;SDS011;10174;42.688;23.344;2023-06-10T08:10:52;8.00;;;5.18;;
20026;SDS011;10174;42.688;23.344;2023-06-10T08:13:18;11.77;;;5.97;;
20026;SDS011;10174;42.688;23.344;2023-06-10T08:15:43;11.57;;;5.50;;
20026;SDS011;10174;42.688;23.344;2023-06-10T08:18:12;14.73;;;5.28;;
20026;SDS011;10174;42.688;23.344;2023-06-10T08:20:38;8.90;;;4.90;;
20026;SDS011;10174;42.688;23.344;2023-06-10T08:23:03;13.55;;;6.57;;
20026;SDS011;10174;42.688;23.344;2023-06-10T08:25:28;15.90;;;6.35;;
20026;SDS011;10174;42.688;23.344;2023-06-10T08:27:54;10.70;;;5.13;;
20026;SDS011;10174;42.688;23.344;2023-06-10T08:30:21;8.27;;;4.95;;
20026;SDS011;10174;42.688;23.344;2023-06-10T08:32:46;9.60;;;4.90;;
20026;SDS011;10174;42.688;23.344;2023-06-10T08:35:12;12.93;;;6.00;;
20026;SDS011;10174;42.688;23.344;2023-06-10T08:37:37;13.55;;;4.60;;
20026;SDS011;10174;42.688;23.344;2023-06-10T08:40:03;6.57;;;4.60;;
20026;SDS011;10174;42.688;23.344;2023-06-10T08:45:04;9.25;;;4.35;;
20026;SDS011;10174;42.688;23.344;2023-06-10T08:47:31;6.13;;;4.10;;
20026;SDS011;10174;42.688;23.344;2023-06-10T08:50:01;8.90;;;5.57;;
20026;SDS011;10174;42.688;23.344;2023-06-10T08:52:35;7.18;;;3.78;;
20026;SDS011;10174;42.688;23.344;2023-06-10T08:55:15;6.30;;;4.20;;
20026;SDS011;10174;42.688;23.344;2023-06-10T08:57:47;6.45;;;4.07;;
20026;SDS011;10174;42.688;23.344;2023-06-10T09:00:14;5.22;;;4.00;;
20026;SDS011;10174;42.688;23.344;2023-06-10T09:02:40;11.50;;;4.07;;
20026;SDS011;10174;42.688;23.344;2023-06-10T09:05:06;13.10;;;4.47;;
20026;SDS011;10174;42.688;23.344;2023-06-10T09:07:33;12.25;;;4.95;;
20026;SDS011;10174;42.688;23.344;2023-06-10T09:10:01;9.50;;;4.47;;
20026;SDS011;10174;42.688;23.344;2023-06-10T09:12:28;6.43;;;4.07;;
20026;SDS011;10174;42.688;23.344;2023-06-10T09:14:54;7.20;;;4.00;;
20026;SDS011;10174;42.688;23.344;2023-06-10T09:17:20;8.13;;;3.72;;
20026;SDS011;10174;42.688;23.344;2023-06-10T09:19:47;9.07;;;3.45;;
20026;SDS011;10174;42.688;23.344;2023-06-10T09:22:12;6.47;;;3.58;;
20026;SDS011;10174;42.688;23.344;2023-06-10T09:24:38;18.08;;;4.00;;
20026;SDS011;10174;42.688;23.344;2023-06-10T09:27:05;9.45;;;3.50;;
20026;SDS011;10174;42.688;23.344;2023-06-10T09:29:35;7.72;;;3.70;;
20026;SDS011;10174;42.688;23.344;2023-06-10T09:32:10;8.77;;;4.22;;
20026;SDS011;10174;42.688;23.344;2023-06-10T09:34:36;6.05;;;4.75;;
20026;SDS011;10174;42.688;23.344;2023-06-10T09:37:01;6.93;;;3.75;;
20026;SDS011;10174;42.688;23.344;2023-06-10T09:39:27;6.10;;;3.45;;
20026;SDS011;10174;42.688;23.344;2023-06-10T09:41:52;7.05;;;4.35;;
20026;SDS011;10174;42.688;23.344;2023-06-10T09:44:18;8.45;;;4.47;;
20026;SDS011;10174;42.688;23.344;2023-06-10T09:46:46;11.45;;;4.38;;
20026;SDS011;10174;42.688;23.344;2023-06-10T09:49:14;9.07;;;3.40;;
20026;SDS011;10174;42.688;23.344;2023-06-10T09:51:53;7.22;;;3.50;;
20026;SDS011;10174;42.688;23.344;2023-06-10T09:54:19;6.10;;;3.40;;
20026;SDS011;10174;42.688;23.344;2023-06-10T09:56:49;6.63;;;3.40;;
20026;SDS011;10174;42.688;23.344;2023-06-10T09:59:27;5.22;;;3.60;;
20026;SDS011;10174;42.688;23.344;2023-06-10T10:01:54;11.02;;;4.97;;
20026;SDS011;10174;42.688;23.344;2023-06-10T10:04:24;7.43;;;3.25;;
20026;SDS011;10174;42.688;23.344;2023-06-10T10:06:50;12.82;;;4.03;;
20026;SDS011;10174;42.688;23.344;2023-06-10T10:09:16;6.82;;;3.75;;
20026;SDS011;10174;42.688;23.344;2023-06-10T10:11:41;4.45;;;3.20;;
20026;SDS011;10174;42.688;23.344;2023-06-10T10:14:08;7.63;;;4.03;;
20026;SDS011;10174;42.688;23.344;2023-06-10T10:16:37;6.05;;;3.88;;
20026;SDS011;10174;42.688;23.344;2023-06-10T10:19:16;9.10;;;3.60;;
20026;SDS011;10174;42.688;23.344;2023-06-10T10:21:56;6.53;;;3.67;;
20026;SDS011;10174;42.688;23.344;2023-06-10T10:24:42;15.75;;;3.80;;
20026;SDS011;10174;42.688;23.344;2023-06-10T10:27:17;12.23;;;4.80;;
20026;SDS011;10174;42.688;23.344;2023-06-10T10:29:46;7.10;;;3.60;;
20026;SDS011;10174;42.688;23.344;2023-06-10T10:32:13;6.40;;;3.67;;
20026;SDS011;10174;42.688;23.344;2023-06-10T10:37:27;8.68;;;3.97;;
20026;SDS011;10174;42.688;23.344;2023-06-10T10:39:53;6.10;;;4.07;;
20026;SDS011;10174;42.688;23.344;2023-06-10T10:42:19;5.93;;;3.75;;
20026;SDS011;10174;42.688;23.344;2023-06-10T10:44:45;11.45;;;4.38;;
20026;SDS011;10174;42.688;23.344;2023-06-10T10:47:11;6.47;;;3.55;;
20026;SDS011;10174;42.688;23.344;2023-06-10T10:49:38;11.50;;;4.45;;
20026;SDS011;10174;42.688;23.344;2023-06-10T10:52:10;7.55;;;3.80;;
20026;SDS011;10174;42.688;23.344;2023-06-10T10:54:37;8.68;;;3.72;;
20026;SDS011;10174;42.688;23.344;2023-06-10T11:02:41;7.15;;;3.83;;
20026;SDS011;10174;42.688;23.344;2023-06-10T11:05:09;5.30;;;3.40;;
20026;SDS011;10174;42.688;23.344;2023-06-10T11:07:36;9.20;;;3.80;;
20026;SDS011;10174;42.688;23.344;2023-06-10T11:15:13;11.05;;;4.65;;
20026;SDS011;10174;42.688;23.344;2023-06-10T11:23:09;5.82;;;4.28;;
20026;SDS011;10174;42.688;23.344;2023-06-10T11:25:38;9.20;;;4.90;;
20026;SDS011;10174;42.688;23.344;2023-06-10T11:28:16;9.57;;;4.63;;
20026;SDS011;10174;42.688;23.344;2023-06-10T11:30:44;8.45;;;4.63;;
20026;SDS011;10174;42.688;23.344;2023-06-10T11:33:13;8.23;;;5.00;;
20026;SDS011;10174;42.688;23.344;2023-06-10T11:35:40;12.00;;;4.82;;
20026;SDS011;10174;42.688;23.344;2023-06-10T11:38:05;10.15;;;4.72;;
20026;SDS011;10174;42.688;23.344;2023-06-10T11:40:31;6.72;;;4.78;;
20026;SDS011;10174;42.688;23.344;2023-06-10T11:42:57;11.25;;;5.20;;
20026;SDS011;10174;42.688;23.344;2023-06-10T11:45:23;9.05;;;5.65;;
20026;SDS011;10174;42.688;23.344;2023-06-10T11:47:58;6.97;;;4.82;;
20026;SDS011;10174;42.688;23.344;2023-06-10T11:50:30;12.98;;;4.00;;
20026;SDS011;10174;42.688;23.344;2023-06-10T11:52:59;10.60;;;3.75;;
20026;SDS011;10174;42.688;23.344;2023-06-10T11:55:41;8.15;;;3.83;;
20026;SDS011;10174;42.688;23.344;2023-06-10T11:58:13;9.43;;;3.53;;
20026;SDS011;10174;42.688;23.344;2023-06-10T12:03:36;9.98;;;4.85;;
20026;SDS011;10174;42.688;23.344;2023-06-10T12:06:05;8.90;;;5.17;;
20026;SDS011;10174;42.688;23.344;2023-06-10T12:08:31;8.13;;;4.70;;
20026;SDS011;10174;42.688;23.344;2023-06-10T12:10:57;5.40;;;3.45;;
20026;SDS011;10174;42.688;23.344;2023-06-10T12:13:26;7.80;;;3.65;;
20026;SDS011;10174;42.688;23.344;2023-06-10T12:15:51;6.00;;;3.67;;
20026;SDS011;10174;42.688;23.344;2023-06-10T12:20:47;7.10;;;3.78;;
20026;SDS011;10174;42.688;23.344;2023-06-10T12:23:13;9.15;;;3.60;;
20026;SDS011;10174;42.688;23.344;2023-06-10T12:25:39;8.00;;;3.60;;
20026;SDS011;10174;42.688;23.344;2023-06-10T12:28:25;11.88;;;4.00;;
20026;SDS011;10174;42.688;23.344;2023-06-10T12:30:51;7.75;;;4.03;;
20026;SDS011;10174;42.688;23.344;2023-06-10T12:33:30;8.95;;;3.67;;
20026;SDS011;10174;42.688;23.344;2023-06-10T12:35:56;5.53;;;4.10;;
20026;SDS011;10174;42.688;23.344;2023-06-10T12:38:21;8.45;;;4.05;;
20026;SDS011;10174;42.688;23.344;2023-06-10T12:40:49;10.43;;;3.67;;
20026;SDS011;10174;42.688;23.344;2023-06-10T12:43:33;7.63;;;3.85;;
20026;SDS011;10174;42.688;23.344;2023-06-10T12:46:09;6.22;;;3.55;;
20026;SDS011;10174;42.688;23.344;2023-06-10T12:48:35;5.47;;;3.90;;
20026;SDS011;10174;42.688;23.344;2023-06-10T12:51:00;11.63;;;3.95;;
20026;SDS011;10174;42.688;23.344;2023-06-10T12:53:26;5.28;;;3.70;;
20026;SDS011;10174;42.688;23.344;2023-06-10T12:55:52;8.85;;;3.50;;
20026;SDS011;10174;42.688;23.344;2023-06-10T12:58:21;4.57;;;3.28;;
20026;SDS011;10174;42.688;23.344;2023-06-10T13:00:47;12.35;;;3.95;;
20026;SDS011;10174;42.688;23.344;2023-06-10T13:03:13;9.77;;;4.10;;
20026;SDS011;10174;42.688;23.344;2023-06-10T13:05:39;9.55;;;3.95;;
20026;SDS011;10174;42.688;23.344;2023-06-10T13:08:05;6.32;;;3.63;;
20026;SDS011;10174;42.688;23.344;2023-06-10T13:10:32;14.27;;;4.05;;
20026;SDS011;10174;42.688;23.344;2023-06-10T13:12:58;8.23;;;3.50;;
20026;SDS011;10174;42.688;23.344;2023-06-10T13:15:25;5.53;;;3.72;;
20026;SDS011;10174;42.688;23.344;2023-06-10T13:17:51;15.02;;;3.55;;
20026;SDS011;10174;42.688;23.344;2023-06-10T13:20:17;14.68;;;3.85;;
20026;SDS011;10174;42.688;23.344;2023-06-10T13:22:43;6.75;;;4.20;;
20026;SDS011;10174;42.688;23.344;2023-06-10T13:25:08;15.05;;;5.20;;
20026;SDS011;10174;42.688;23.344;2023-06-10T13:27:35;10.15;;;4.85;;
20026;SDS011;10174;42.688;23.344;2023-06-10T13:30:04;15.40;;;5.45;;
20026;SDS011;10174;42.688;23.344;2023-06-10T13:32:32;12.38;;;5.15;;
20026;SDS011;10174;42.688;23.344;2023-06-10T13:34:58;11.57;;;5.57;;
20026;SDS011;10174;42.688;23.344;2023-06-10T13:37:23;14.57;;;5.72;;
20026;SDS011;10174;42.688;23.344;2023-06-10T13:39:49;12.68;;;5.68;;
20026;SDS011;10174;42.688;23.344;2023-06-10T13:42:19;13.50;;;6.25;;
20026;SDS011;10174;42.688;23.344;2023-06-10T13:44:45;13.88;;;5.43;;
20026;SDS011;10174;42.688;23.344;2023-06-10T13:47:12;13.63;;;5.80;;
20026;SDS011;10174;42.688;23.344;2023-06-10T13:49:38;14.20;;;5.45;;
20026;SDS011;10174;42.688;23.344;2023-06-10T13:52:03;15.05;;;6.00;;
20026;SDS011;10174;42.688;23.344;2023-06-10T13:54:29;11.15;;;6.30;;
20026;SDS011;10174;42.688;23.344;2023-06-10T13:56:55;10.93;;;5.85;;
20026;SDS011;10174;42.688;23.344;2023-06-10T13:59:20;15.57;;;6.38;;
20026;SDS011;10174;42.688;23.344;2023-06-10T14:01:46;15.52;;;6.40;;
20026;SDS011;10174;42.688;23.344;2023-06-10T14:04:12;14.20;;;5.63;;
20026;SDS011;10174;42.688;23.344;2023-06-10T14:06:37;13.05;;;6.10;;
20026;SDS011;10174;42.688;23.344;2023-06-10T14:09:02;16.42;;;6.53;;
20026;SDS011;10174;42.688;23.344;2023-06-10T14:11:28;16.20;;;6.13;;
20026;SDS011;10174;42.688;23.344;2023-06-10T14:13:54;14.48;;;6.00;;
20026;SDS011;10174;42.688;23.344;2023-06-10T14:16:22;21.13;;;6.35;;
20026;SDS011;10174;42.688;23.344;2023-06-10T14:18:48;10.45;;;6.18;;
20026;SDS011;10174;42.688;23.344;2023-06-10T14:21:15;11.20;;;6.43;;
20026;SDS011;10174;42.688;23.344;2023-06-10T14:23:40;9.27;;;5.95;;
20026;SDS011;10174;42.688;23.344;2023-06-10T14:26:06;13.23;;;5.80;;
20026;SDS011;10174;42.688;23.344;2023-06-10T14:28:32;13.40;;;5.82;;
20026;SDS011;10174;42.688;23.344;2023-06-10T14:30:57;9.27;;;5.50;;
20026;SDS011;10174;42.688;23.344;2023-06-10T14:33:23;13.35;;;5.35;;
20026;SDS011;10174;42.688;23.344;2023-06-10T14:35:48;7.90;;;5.32;;
20026;SDS011;10174;42.688;23.344;2023-06-10T14:38:13;9.98;;;5.22;;
20026;SDS011;10174;42.688;23.344;2023-06-10T14:40:39;11.65;;;5.50;;
20026;SDS011;10174;42.688;23.344;2023-06-10T14:43:04;11.55;;;5.93;;
20026;SDS011;10174;42.688;23.344;2023-06-10T14:45:35;14.88;;;5.32;;
20026;SDS011;10174;42.688;23.344;2023-06-10T14:48:04;8.20;;;4.57;;